sensor_id;sensor_type;location;lat;lon;timestamp;temperature;humidity
14585;DHT22;7379;51.506;11.876;2023-10-09T00:01:27;14.70;68.80
14585;DHT22;7379;51.506;11.876;2023-10-09T00:03:54;14.70;68.80
14585;DHT22;7379;51.506;11.876;2023-10-09T00:06:22;14.70;68.80
14585;DHT22;7379;51.506;11.876;2023-10-09T00:09:02;14.70;68.80
14585;DHT22;7379;51.506;11.876;2023-10-09T00:11:54;14.70;68.90
14585;DHT22;7379;51.506;11.876;2023-10-09T00:14:23;14.70;68.90
14585;DHT22;7379;51.506;11.876;2023-10-09T00:16:51;14.70;68.90
14585;DHT22;7379;51.506;11.876;2023-10-09T00:19:28;14.70;68.90
14585;DHT22;7379;51.506;11.876;2023-10-09T00:21:59;14.70;69.00
14585;DHT22;7379;51.506;11.876;2023-10-09T00:24:31;14.70;69.00
14585;DHT22;7379;51.506;11.876;2023-10-09T00:26:58;14.70;69.10
14585;DHT22;7379;51.506;11.876;2023-10-09T00:29:37;14.70;69.10
14585;DHT22;7379;51.506;11.876;2023-10-09T00:32:12;14.70;69.90
14585;DHT22;7379;51.506;11.876;2023-10-09T00:34:52;14.70;69.20
14585;DHT22;7379;51.506;11.876;2023-10-09T00:37:24;14.60;69.10
14585;DHT22;7379;51.506;11.876;2023-10-09T00:39:51;14.60;69.20
14585;DHT22;7379;51.506;11.876;2023-10-09T00:42:22;14.70;69.30
14585;DHT22;7379;51.506;11.876;2023-10-09T00:44:55;14.70;69.30
14585;DHT22;7379;51.506;11.876;2023-10-09T00:47:23;14.70;69.30
14585;DHT22;7379;51.506;11.876;2023-10-09T00:50:01;14.60;69.20
14585;DHT22;7379;51.506;11.876;2023-10-09T00:52:37;14.60;69.30
14585;DHT22;7379;51.506;11.876;2023-10-09T00:55:11;14.60;69.30
14585;DHT22;7379;51.506;11.876;2023-10-09T00:57:41;14.60;69.30
14585;DHT22;7379;51.506;11.876;2023-10-09T01:00:13;14.60;69.30
14585;DHT22;7379;51.506;11.876;2023-10-09T01:02:59;14.60;69.30
14585;DHT22;7379;51.506;11.876;2023-10-09T01:05:45;14.60;69.40
14585;DHT22;7379;51.506;11.876;2023-10-09T01:08:17;14.60;69.40
14585;DHT22;7379;51.506;11.876;2023-10-09T01:10:50;14.60;69.40
14585;DHT22;7379;51.506;11.876;2023-10-09T01:13:18;14.60;69.50
14585;DHT22;7379;51.506;11.876;2023-10-09T01:15:45;14.60;69.50
14585;DHT22;7379;51.506;11.876;2023-10-09T01:18:15;14.60;69.50
14585;DHT22;7379;51.506;11.876;2023-10-09T01:20:44;14.60;69.50
14585;DHT22;7379;51.506;11.876;2023-10-09T01:23:13;14.60;69.60
14585;DHT22;7379;51.506;11.876;2023-10-09T01:25:41;14.60;69.60
14585;DHT22;7379;51.506;11.876;2023-10-09T01:28:15;14.60;69.60
14585;DHT22;7379;51.506;11.876;2023-10-09T01:30:42;14.60;69.60
14585;DHT22;7379;51.506;11.876;2023-10-09T01:33:08;14.60;69.60
14585;DHT22;7379;51.506;11.876;2023-10-09T01:35:48;14.60;69.60
14585;DHT22;7379;51.506;11.876;2023-10-09T01:38:17;14.60;69.60
14585;DHT22;7379;51.506;11.876;2023-10-09T01:40:56;14.60;69.70
14585;DHT22;7379;51.506;11.876;2023-10-09T01:43:29;14.60;69.70
14585;DHT22;7379;51.506;11.876;2023-10-09T01:45:57;14.60;69.70
14585;DHT22;7379;51.506;11.876;2023-10-09T01:48:26;14.60;69.70
14585;DHT22;7379;51.506;11.876;2023-10-09T01:50:53;14.60;69.80
14585;DHT22;7379;51.506;11.876;2023-10-09T01:53:21;14.60;69.80
14585;DHT22;7379;51.506;11.876;2023-10-09T01:55:53;14.60;69.80
14585;DHT22;7379;51.506;11.876;2023-10-09T01:58:21;14.60;69.80
14585;DHT22;7379;51.506;11.876;2023-10-09T02:00:51;14.60;69.80
14585;DHT22;7379;51.506;11.876;2023-10-09T02:03:20;14.60;69.90
14585;DHT22;7379;51.506;11.876;2023-10-09T02:05:50;14.60;69.90
14585;DHT22;7379;51.506;11.876;2023-10-09T02:08:18;14.60;69.90
14585;DHT22;7379;51.506;11.876;2023-10-09T02:10:49;14.60;70.00
14585;DHT22;7379;51.506;11.876;2023-10-09T02:13:16;14.60;70.00
14585;DHT22;7379;51.506;11.876;2023-10-09T02:15:43;14.60;70.00
14585;DHT22;7379;51.506;11.876;2023-10-09T02:18:27;14.60;70.00
14585;DHT22;7379;51.506;11.876;2023-10-09T02:21:06;14.60;70.00
14585;DHT22;7379;51.506;11.876;2023-10-09T02:23:39;14.50;70.00
14585;DHT22;7379;51.506;11.876;2023-10-09T02:26:08;14.60;70.10
14585;DHT22;7379;51.506;11.876;2023-10-09T02:28:35;14.50;70.10
14585;DHT22;7379;51.506;11.876;2023-10-09T02:31:10;14.50;70.10
14585;DHT22;7379;51.506;11.876;2023-10-09T02:33:38;14.50;70.10
14585;DHT22;7379;51.506;11.876;2023-10-09T02:36:05;14.50;70.10
14585;DHT22;7379;51.506;11.876;2023-10-09T02:38:33;14.50;70.10
14585;DHT22;7379;51.506;11.876;2023-10-09T02:41:01;14.50;70.10
14585;DHT22;7379;51.506;11.876;2023-10-09T02:43:47;14.50;70.10
14585;DHT22;7379;51.506;11.876;2023-10-09T02:46:17;14.50;70.20
14585;DHT22;7379;51.506;11.876;2023-10-09T02:48:45;14.50;70.30
14585;DHT22;7379;51.506;11.876;2023-10-09T02:51:17;14.50;70.30
14585;DHT22;7379;51.506;11.876;2023-10-09T02:53:58;14.50;70.30
14585;DHT22;7379;51.506;11.876;2023-10-09T02:56:34;14.50;70.30
14585;DHT22;7379;51.506;11.876;2023-10-09T02:59:05;14.50;70.30
14585;DHT22;7379;51.506;11.876;2023-10-09T03:01:32;14.50;70.40
14585;DHT22;7379;51.506;11.876;2023-10-09T03:04:01;14.50;70.40
14585;DHT22;7379;51.506;11.876;2023-10-09T03:06:28;14.50;70.40
14585;DHT22;7379;51.506;11.876;2023-10-09T03:08:56;14.50;70.50
14585;DHT22;7379;51.506;11.876;2023-10-09T03:11:23;14.50;70.50
14585;DHT22;7379;51.506;11.876;2023-10-09T03:13:52;14.50;70.50
14585;DHT22;7379;51.506;11.876;2023-10-09T03:16:20;14.50;70.50
14585;DHT22;7379;51.506;11.876;2023-10-09T03:18:47;14.50;70.50
14585;DHT22;7379;51.506;11.876;2023-10-09T03:21:15;14.50;70.50
14585;DHT22;7379;51.506;11.876;2023-10-09T03:23:42;14.50;70.60
14585;DHT22;7379;51.506;11.876;2023-10-09T03:26:10;14.50;70.60
14585;DHT22;7379;51.506;11.876;2023-10-09T03:28:36;14.50;70.60
14585;DHT22;7379;51.506;11.876;2023-10-09T03:31:03;14.50;70.60
14585;DHT22;7379;51.506;11.876;2023-10-09T03:33:33;14.50;70.70
14585;DHT22;7379;51.506;11.876;2023-10-09T03:36:01;14.50;70.70
14585;DHT22;7379;51.506;11.876;2023-10-09T03:38:32;14.50;70.70
14585;DHT22;7379;51.506;11.876;2023-10-09T03:41:02;14.50;70.80
14585;DHT22;7379;51.506;11.876;2023-10-09T03:43:32;14.50;70.80
14585;DHT22;7379;51.506;11.876;2023-10-09T03:46:03;14.50;70.80
14585;DHT22;7379;51.506;11.876;2023-10-09T03:48:30;14.50;71.70
14585;DHT22;7379;51.506;11.876;2023-10-09T03:51:00;14.50;70.90
14585;DHT22;7379;51.506;11.876;2023-10-09T03:53:34;14.50;70.90
14585;DHT22;7379;51.506;11.876;2023-10-09T03:56:03;14.50;71.00
14585;DHT22;7379;51.506;11.876;2023-10-09T03:58:38;14.50;71.00
14585;DHT22;7379;51.506;11.876;2023-10-09T04:01:07;14.50;71.10
14585;DHT22;7379;51.506;11.876;2023-10-09T04:03:39;14.40;71.00
14585;DHT22;7379;51.506;11.876;2023-10-09T04:06:07;14.40;71.00
14585;DHT22;7379;51.506;11.876;2023-10-09T04:08:36;14.40;71.00
14585;DHT22;7379;51.506;11.876;2023-10-09T04:11:05;14.40;71.10
14585;DHT22;7379;51.506;11.876;2023-10-09T04:13:42;14.40;71.10
14585;DHT22;7379;51.506;11.876;2023-10-09T04:16:11;14.40;71.10
14585;DHT22;7379;51.506;11.876;2023-10-09T04:18:59;14.40;71.20
14585;DHT22;7379;51.506;11.876;2023-10-09T04:21:32;14.40;71.20
14585;DHT22;7379;51.506;11.876;2023-10-09T04:24:03;14.40;71.30
14585;DHT22;7379;51.506;11.876;2023-10-09T04:26:44;14.40;71.30
14585;DHT22;7379;51.506;11.876;2023-10-09T04:29:11;14.40;71.40
14585;DHT22;7379;51.506;11.876;2023-10-09T04:31:44;14.40;71.40
14585;DHT22;7379;51.506;11.876;2023-10-09T04:34:17;14.40;71.50
14585;DHT22;7379;51.506;11.876;2023-10-09T04:37:01;14.40;71.50
14585;DHT22;7379;51.506;11.876;2023-10-09T04:39:45;14.40;71.50
14585;DHT22;7379;51.506;11.876;2023-10-09T04:42:26;14.40;71.60
14585;DHT22;7379;51.506;11.876;2023-10-09T04:45:02;14.40;71.60
14585;DHT22;7379;51.506;11.876;2023-10-09T04:48:13;14.40;71.60
14585;DHT22;7379;51.506;11.876;2023-10-09T04:50:58;14.40;71.70
14585;DHT22;7379;51.506;11.876;2023-10-09T04:53:43;14.40;71.70
14585;DHT22;7379;51.506;11.876;2023-10-09T04:56:15;14.40;71.80
14585;DHT22;7379;51.506;11.876;2023-10-09T04:58:42;14.40;71.80
14585;DHT22;7379;51.506;11.876;2023-10-09T05:01:11;14.40;71.80
14585;DHT22;7379;51.506;11.876;2023-10-09T05:03:42;14.40;71.80
14585;DHT22;7379;51.506;11.876;2023-10-09T05:06:18;14.40;71.90
14585;DHT22;7379;51.506;11.876;2023-10-09T05:08:48;14.40;71.90
14585;DHT22;7379;51.506;11.876;2023-10-09T05:11:21;14.40;71.90
14585;DHT22;7379;51.506;11.876;2023-10-09T05:14:17;14.40;71.90
14585;DHT22;7379;51.506;11.876;2023-10-09T05:16:52;14.40;71.90
14585;DHT22;7379;51.506;11.876;2023-10-09T05:19:27;14.40;71.90
14585;DHT22;7379;51.506;11.876;2023-10-09T05:22:20;14.40;72.00
14585;DHT22;7379;51.506;11.876;2023-10-09T05:24:57;14.40;72.00
14585;DHT22;7379;51.506;11.876;2023-10-09T05:27:26;14.40;72.10
14585;DHT22;7379;51.506;11.876;2023-10-09T05:30:07;14.40;72.10
14585;DHT22;7379;51.506;11.876;2023-10-09T05:32:55;14.40;72.10
14585;DHT22;7379;51.506;11.876;2023-10-09T05:35:24;14.40;72.20
14585;DHT22;7379;51.506;11.876;2023-10-09T05:38:07;14.40;72.90
14585;DHT22;7379;51.506;11.876;2023-10-09T05:40:42;14.40;72.20
14585;DHT22;7379;51.506;11.876;2023-10-09T05:43:09;14.40;72.20
14585;DHT22;7379;51.506;11.876;2023-10-09T05:45:56;14.40;72.30
14585;DHT22;7379;51.506;11.876;2023-10-09T05:48:33;14.40;72.30
14585;DHT22;7379;51.506;11.876;2023-10-09T05:51:28;14.40;72.30
14585;DHT22;7379;51.506;11.876;2023-10-09T05:54:19;14.40;72.40
14585;DHT22;7379;51.506;11.876;2023-10-09T05:57:07;14.40;72.40
14585;DHT22;7379;51.506;11.876;2023-10-09T05:59:56;14.40;72.40
14585;DHT22;7379;51.506;11.876;2023-10-09T06:02:41;14.40;72.50
14585;DHT22;7379;51.506;11.876;2023-10-09T06:05:25;14.40;72.50
14585;DHT22;7379;51.506;11.876;2023-10-09T06:08:07;14.40;72.60
14585;DHT22;7379;51.506;11.876;2023-10-09T06:10:38;14.40;72.60
14585;DHT22;7379;51.506;11.876;2023-10-09T06:13:08;14.40;72.60
14585;DHT22;7379;51.506;11.876;2023-10-09T06:15:49;14.40;72.70
14585;DHT22;7379;51.506;11.876;2023-10-09T06:18:35;14.40;72.70
14585;DHT22;7379;51.506;11.876;2023-10-09T06:21:01;14.30;72.70
14585;DHT22;7379;51.506;11.876;2023-10-09T06:23:44;14.30;72.80
14585;DHT22;7379;51.506;11.876;2023-10-09T06:26:34;14.30;72.80
14585;DHT22;7379;51.506;11.876;2023-10-09T06:29:03;14.30;72.90
14585;DHT22;7379;51.506;11.876;2023-10-09T06:31:42;14.30;72.90
14585;DHT22;7379;51.506;11.876;2023-10-09T06:34:26;14.30;73.00
14585;DHT22;7379;51.506;11.876;2023-10-09T06:37:01;14.30;73.00
14585;DHT22;7379;51.506;11.876;2023-10-09T06:39:34;14.30;73.10
14585;DHT22;7379;51.506;11.876;2023-10-09T06:42:18;14.30;73.10
14585;DHT22;7379;51.506;11.876;2023-10-09T06:45:01;14.30;73.10
14585;DHT22;7379;51.506;11.876;2023-10-09T06:47:40;14.30;73.20
14585;DHT22;7379;51.506;11.876;2023-10-09T06:50:08;14.30;73.20
14585;DHT22;7379;51.506;11.876;2023-10-09T06:53:12;14.30;73.30
14585;DHT22;7379;51.506;11.876;2023-10-09T06:55:50;14.30;73.30
14585;DHT22;7379;51.506;11.876;2023-10-09T06:58:17;14.30;73.40
14585;DHT22;7379;51.506;11.876;2023-10-09T07:00:53;14.30;73.40
14585;DHT22;7379;51.506;11.876;2023-10-09T07:03:34;14.30;73.50
14585;DHT22;7379;51.506;11.876;2023-10-09T07:06:05;14.30;73.50
14585;DHT22;7379;51.506;11.876;2023-10-09T07:08:35;14.30;73.60
14585;DHT22;7379;51.506;11.876;2023-10-09T07:11:03;14.30;73.60
14585;DHT22;7379;51.506;11.876;2023-10-09T07:13:47;14.30;73.70
14585;DHT22;7379;51.506;11.876;2023-10-09T07:16:22;14.30;73.70
14585;DHT22;7379;51.506;11.876;2023-10-09T07:18:55;14.30;73.80
14585;DHT22;7379;51.506;11.876;2023-10-09T07:21:35;14.30;73.80
14585;DHT22;7379;51.506;11.876;2023-10-09T07:24:05;14.30;73.80
14585;DHT22;7379;51.506;11.876;2023-10-09T07:26:40;14.30;73.90
14585;DHT22;7379;51.506;11.876;2023-10-09T07:29:12;14.30;73.90
14585;DHT22;7379;51.506;11.876;2023-10-09T07:31:48;14.30;74.00
14585;DHT22;7379;51.506;11.876;2023-10-09T07:34:23;14.30;74.00
14585;DHT22;7379;51.506;11.876;2023-10-09T07:37:19;14.30;74.10
14585;DHT22;7379;51.506;11.876;2023-10-09T07:39:49;14.30;74.20
14585;DHT22;7379;51.506;11.876;2023-10-09T07:42:22;14.30;74.20
14585;DHT22;7379;51.506;11.876;2023-10-09T07:44:59;14.30;74.20
14585;DHT22;7379;51.506;11.876;2023-10-09T07:47:38;14.30;74.30
14585;DHT22;7379;51.506;11.876;2023-10-09T07:50:26;14.30;74.40
14585;DHT22;7379;51.506;11.876;2023-10-09T07:53:04;14.30;74.50
14585;DHT22;7379;51.506;11.876;2023-10-09T07:55:43;14.30;74.50
14585;DHT22;7379;51.506;11.876;2023-10-09T07:58:20;14.30;74.50
14585;DHT22;7379;51.506;11.876;2023-10-09T08:00:51;14.30;74.50
14585;DHT22;7379;51.506;11.876;2023-10-09T08:03:48;14.30;74.50
14585;DHT22;7379;51.506;11.876;2023-10-09T08:06:23;14.30;74.60
14585;DHT22;7379;51.506;11.876;2023-10-09T08:09:03;14.30;74.60
14585;DHT22;7379;51.506;11.876;2023-10-09T08:12:11;14.30;74.60
14585;DHT22;7379;51.506;11.876;2023-10-09T08:15:00;14.30;74.70
14585;DHT22;7379;51.506;11.876;2023-10-09T08:17:46;14.30;74.70
14585;DHT22;7379;51.506;11.876;2023-10-09T08:20:17;14.30;74.70
14585;DHT22;7379;51.506;11.876;2023-10-09T08:22:51;14.30;74.80
14585;DHT22;7379;51.506;11.876;2023-10-09T08:25:18;14.30;75.60
14585;DHT22;7379;51.506;11.876;2023-10-09T08:27:56;14.30;74.90
14585;DHT22;7379;51.506;11.876;2023-10-09T08:30:40;14.30;75.00
14585;DHT22;7379;51.506;11.876;2023-10-09T08:33:28;14.30;75.00
14585;DHT22;7379;51.506;11.876;2023-10-09T08:36:08;14.30;75.10
14585;DHT22;7379;51.506;11.876;2023-10-09T08:38:44;14.30;75.10
14585;DHT22;7379;51.506;11.876;2023-10-09T08:41:12;14.30;75.10
14585;DHT22;7379;51.506;11.876;2023-10-09T08:43:49;14.30;75.20
14585;DHT22;7379;51.506;11.876;2023-10-09T08:46:19;14.30;75.20
14585;DHT22;7379;51.506;11.876;2023-10-09T08:48:48;14.30;75.20
14585;DHT22;7379;51.506;11.876;2023-10-09T08:51:17;14.40;75.30
14585;DHT22;7379;51.506;11.876;2023-10-09T08:53:44;14.40;75.20
14585;DHT22;7379;51.506;11.876;2023-10-09T08:56:12;14.40;75.30
14585;DHT22;7379;51.506;11.876;2023-10-09T08:58:40;14.30;75.20
14585;DHT22;7379;51.506;11.876;2023-10-09T09:01:07;14.30;75.30
14585;DHT22;7379;51.506;11.876;2023-10-09T09:03:41;14.40;75.50
14585;DHT22;7379;51.506;11.876;2023-10-09T09:06:09;14.40;75.50
14585;DHT22;7379;51.506;11.876;2023-10-09T09:08:38;14.40;75.50
14585;DHT22;7379;51.506;11.876;2023-10-09T09:11:08;14.40;75.60
14585;DHT22;7379;51.506;11.876;2023-10-09T09:13:39;14.30;75.50
14585;DHT22;7379;51.506;11.876;2023-10-09T09:16:17;14.40;75.70
14585;DHT22;7379;51.506;11.876;2023-10-09T09:18:52;14.30;75.50
14585;DHT22;7379;51.506;11.876;2023-10-09T09:21:26;14.40;75.60
14585;DHT22;7379;51.506;11.876;2023-10-09T09:23:56;14.40;75.70
14585;DHT22;7379;51.506;11.876;2023-10-09T09:26:36;14.40;75.70
14585;DHT22;7379;51.506;11.876;2023-10-09T09:29:05;14.40;75.70
14585;DHT22;7379;51.506;11.876;2023-10-09T09:31:32;14.40;75.70
14585;DHT22;7379;51.506;11.876;2023-10-09T09:34:04;14.40;75.70
14585;DHT22;7379;51.506;11.876;2023-10-09T09:36:49;14.40;75.80
14585;DHT22;7379;51.506;11.876;2023-10-09T09:39:21;14.40;75.80
14585;DHT22;7379;51.506;11.876;2023-10-09T09:41:58;14.40;76.10
14585;DHT22;7379;51.506;11.876;2023-10-09T09:44:32;14.40;76.50
14585;DHT22;7379;51.506;11.876;2023-10-09T09:47:00;14.40;76.60
14585;DHT22;7379;51.506;11.876;2023-10-09T09:49:30;14.40;76.80
14585;DHT22;7379;51.506;11.876;2023-10-09T09:52:01;14.40;77.00
14585;DHT22;7379;51.506;11.876;2023-10-09T09:54:29;14.40;77.20
14585;DHT22;7379;51.506;11.876;2023-10-09T09:57:02;14.40;77.60
14585;DHT22;7379;51.506;11.876;2023-10-09T09:59:38;14.50;78.20
14585;DHT22;7379;51.506;11.876;2023-10-09T10:02:09;14.50;78.20
14585;DHT22;7379;51.506;11.876;2023-10-09T10:04:39;14.50;78.00
14585;DHT22;7379;51.506;11.876;2023-10-09T10:07:07;14.50;78.00
14585;DHT22;7379;51.506;11.876;2023-10-09T10:09:37;14.50;78.30
14585;DHT22;7379;51.506;11.876;2023-10-09T10:12:05;14.50;78.10
14585;DHT22;7379;51.506;11.876;2023-10-09T10:14:53;14.50;78.10
14585;DHT22;7379;51.506;11.876;2023-10-09T10:17:22;14.60;78.40
14585;DHT22;7379;51.506;11.876;2023-10-09T10:19:59;14.50;78.20
14585;DHT22;7379;51.506;11.876;2023-10-09T10:22:27;14.50;78.20
14585;DHT22;7379;51.506;11.876;2023-10-09T10:24:57;14.50;78.00
14585;DHT22;7379;51.506;11.876;2023-10-09T10:27:28;14.50;78.00
14585;DHT22;7379;51.506;11.876;2023-10-09T10:30:26;14.50;78.10
14585;DHT22;7379;51.506;11.876;2023-10-09T10:32:56;14.60;78.30
14585;DHT22;7379;51.506;11.876;2023-10-09T10:35:24;14.50;78.20
14585;DHT22;7379;51.506;11.876;2023-10-09T10:38:30;14.50;78.10
14585;DHT22;7379;51.506;11.876;2023-10-09T10:41:12;14.60;78.30
14585;DHT22;7379;51.506;11.876;2023-10-09T10:43:40;14.60;78.40
14585;DHT22;7379;51.506;11.876;2023-10-09T10:46:25;14.60;78.30
14585;DHT22;7379;51.506;11.876;2023-10-09T10:49:00;14.60;78.60
14585;DHT22;7379;51.506;11.876;2023-10-09T10:51:40;14.60;78.60
14585;DHT22;7379;51.506;11.876;2023-10-09T10:54:21;14.50;78.60
14585;DHT22;7379;51.506;11.876;2023-10-09T10:57:21;14.60;79.00
14585;DHT22;7379;51.506;11.876;2023-10-09T11:00:11;14.60;79.50
14585;DHT22;7379;51.506;11.876;2023-10-09T11:02:48;14.60;79.40
14585;DHT22;7379;51.506;11.876;2023-10-09T11:05:14;14.60;79.60
14585;DHT22;7379;51.506;11.876;2023-10-09T11:07:49;14.60;80.70
14585;DHT22;7379;51.506;11.876;2023-10-09T11:10:22;14.60;79.90
14585;DHT22;7379;51.506;11.876;2023-10-09T11:12:55;14.60;79.90
14585;DHT22;7379;51.506;11.876;2023-10-09T11:15:37;14.60;80.10
14585;DHT22;7379;51.506;11.876;2023-10-09T11:18:21;14.60;80.10
14585;DHT22;7379;51.506;11.876;2023-10-09T11:20:53;14.60;80.40
14585;DHT22;7379;51.506;11.876;2023-10-09T11:23:44;14.70;81.50
14585;DHT22;7379;51.506;11.876;2023-10-09T11:26:24;14.70;80.90
14585;DHT22;7379;51.506;11.876;2023-10-09T11:29:10;14.70;81.00
14585;DHT22;7379;51.506;11.876;2023-10-09T11:31:40;14.70;81.10
14585;DHT22;7379;51.506;11.876;2023-10-09T11:34:20;14.70;81.30
14585;DHT22;7379;51.506;11.876;2023-10-09T11:36:55;14.70;81.40
14585;DHT22;7379;51.506;11.876;2023-10-09T11:39:27;14.70;81.60
14585;DHT22;7379;51.506;11.876;2023-10-09T11:42:05;14.70;81.50
14585;DHT22;7379;51.506;11.876;2023-10-09T11:44:38;14.70;81.60
14585;DHT22;7379;51.506;11.876;2023-10-09T11:47:06;14.70;81.70
14585;DHT22;7379;51.506;11.876;2023-10-09T11:49:58;14.70;81.70
14585;DHT22;7379;51.506;11.876;2023-10-09T11:52:56;14.70;81.70
14585;DHT22;7379;51.506;11.876;2023-10-09T11:55:36;14.70;81.80
14585;DHT22;7379;51.506;11.876;2023-10-09T11:58:03;14.70;81.70
14585;DHT22;7379;51.506;11.876;2023-10-09T12:00:33;14.70;81.70
14585;DHT22;7379;51.506;11.876;2023-10-09T12:03:11;14.70;81.60
14585;DHT22;7379;51.506;11.876;2023-10-09T12:05:39;14.80;81.80
14585;DHT22;7379;51.506;11.876;2023-10-09T12:08:10;14.80;81.90
14585;DHT22;7379;51.506;11.876;2023-10-09T12:10:37;14.70;81.80
14585;DHT22;7379;51.506;11.876;2023-10-09T12:13:06;14.80;82.00
14585;DHT22;7379;51.506;11.876;2023-10-09T12:15:34;14.70;81.80
14585;DHT22;7379;51.506;11.876;2023-10-09T12:18:05;14.80;81.90
14585;DHT22;7379;51.506;11.876;2023-10-09T12:20:40;14.70;81.90
14585;DHT22;7379;51.506;11.876;2023-10-09T12:23:07;14.80;82.10
14585;DHT22;7379;51.506;11.876;2023-10-09T12:25:38;14.80;82.20
14585;DHT22;7379;51.506;11.876;2023-10-09T12:28:05;14.80;82.30
14585;DHT22;7379;51.506;11.876;2023-10-09T12:30:39;14.80;82.30
14585;DHT22;7379;51.506;11.876;2023-10-09T12:33:07;14.80;82.40
14585;DHT22;7379;51.506;11.876;2023-10-09T12:35:36;14.80;82.40
14585;DHT22;7379;51.506;11.876;2023-10-09T12:38:03;14.80;82.60
14585;DHT22;7379;51.506;11.876;2023-10-09T12:40:34;14.80;82.40
14585;DHT22;7379;51.506;11.876;2023-10-09T12:43:01;14.80;82.40
14585;DHT22;7379;51.506;11.876;2023-10-09T12:45:28;14.80;82.60
14585;DHT22;7379;51.506;11.876;2023-10-09T12:47:59;14.80;82.30
14585;DHT22;7379;51.506;11.876;2023-10-09T12:50:29;14.80;82.30
14585;DHT22;7379;51.506;11.876;2023-10-09T12:52:59;14.80;82.20
14585;DHT22;7379;51.506;11.876;2023-10-09T12:55:35;14.80;82.20
14585;DHT22;7379;51.506;11.876;2023-10-09T12:58:06;14.80;82.10
14585;DHT22;7379;51.506;11.876;2023-10-09T13:00:34;14.80;83.20
14585;DHT22;7379;51.506;11.876;2023-10-09T13:03:05;14.80;84.30
14585;DHT22;7379;51.506;11.876;2023-10-09T13:05:43;14.90;83.20
14585;DHT22;7379;51.506;11.876;2023-10-09T13:08:18;14.90;82.30
14585;DHT22;7379;51.506;11.876;2023-10-09T13:10:47;14.90;82.80
14585;DHT22;7379;51.506;11.876;2023-10-09T13:13:19;14.90;82.50
14585;DHT22;7379;51.506;11.876;2023-10-09T13:15:46;14.90;82.40
14585;DHT22;7379;51.506;11.876;2023-10-09T13:18:14;14.90;82.40
14585;DHT22;7379;51.506;11.876;2023-10-09T13:20:41;14.90;82.50
14585;DHT22;7379;51.506;11.876;2023-10-09T13:23:08;14.90;82.90
14585;DHT22;7379;51.506;11.876;2023-10-09T13:25:40;14.90;83.00
14585;DHT22;7379;51.506;11.876;2023-10-09T13:28:06;14.90;83.00
14585;DHT22;7379;51.506;11.876;2023-10-09T13:30:37;14.90;83.60
14585;DHT22;7379;51.506;11.876;2023-10-09T13:33:15;14.90;83.70
14585;DHT22;7379;51.506;11.876;2023-10-09T13:35:47;14.90;83.30
14585;DHT22;7379;51.506;11.876;2023-10-09T13:38:16;14.90;83.20
14585;DHT22;7379;51.506;11.876;2023-10-09T13:40:43;14.90;83.00
14585;DHT22;7379;51.506;11.876;2023-10-09T13:43:09;14.90;83.00
14585;DHT22;7379;51.506;11.876;2023-10-09T13:45:41;14.90;82.60
14585;DHT22;7379;51.506;11.876;2023-10-09T13:48:15;14.90;82.70
14585;DHT22;7379;51.506;11.876;2023-10-09T13:50:46;15.00;82.70
14585;DHT22;7379;51.506;11.876;2023-10-09T13:53:13;14.90;83.30
14585;DHT22;7379;51.506;11.876;2023-10-09T13:55:41;14.90;83.20
14585;DHT22;7379;51.506;11.876;2023-10-09T13:58:09;14.90;82.80
14585;DHT22;7379;51.506;11.876;2023-10-09T14:00:39;14.90;82.80
14585;DHT22;7379;51.506;11.876;2023-10-09T14:03:08;14.90;82.70
14585;DHT22;7379;51.506;11.876;2023-10-09T14:05:40;15.00;82.80
14585;DHT22;7379;51.506;11.876;2023-10-09T14:08:20;15.00;82.80
14585;DHT22;7379;51.506;11.876;2023-10-09T14:10:48;15.00;82.80
14585;DHT22;7379;51.506;11.876;2023-10-09T14:13:15;15.00;82.90
14585;DHT22;7379;51.506;11.876;2023-10-09T14:15:51;15.00;83.10
14585;DHT22;7379;51.506;11.876;2023-10-09T14:18:20;15.00;83.00
14585;DHT22;7379;51.506;11.876;2023-10-09T14:20:48;15.00;83.10
14585;DHT22;7379;51.506;11.876;2023-10-09T14:23:15;15.00;83.40
14585;DHT22;7379;51.506;11.876;2023-10-09T14:25:46;15.00;83.60
14585;DHT22;7379;51.506;11.876;2023-10-09T14:28:15;15.00;83.60
14585;DHT22;7379;51.506;11.876;2023-10-09T14:30:44;15.00;83.60
14585;DHT22;7379;51.506;11.876;2023-10-09T14:33:14;15.00;83.80
14585;DHT22;7379;51.506;11.876;2023-10-09T14:35:49;15.00;83.90
14585;DHT22;7379;51.506;11.876;2023-10-09T14:38:18;15.00;84.10
14585;DHT22;7379;51.506;11.876;2023-10-09T14:40:52;15.00;84.20
14585;DHT22;7379;51.506;11.876;2023-10-09T14:43:23;15.00;84.40
14585;DHT22;7379;51.506;11.876;2023-10-09T14:45:54;15.00;84.30
14585;DHT22;7379;51.506;11.876;2023-10-09T14:48:21;15.10;84.70
14585;DHT22;7379;51.506;11.876;2023-10-09T14:50:53;15.10;84.50
14585;DHT22;7379;51.506;11.876;2023-10-09T14:53:20;15.00;84.60
14585;DHT22;7379;51.506;11.876;2023-10-09T14:55:54;15.00;84.90
14585;DHT22;7379;51.506;11.876;2023-10-09T14:58:20;15.00;84.70
14585;DHT22;7379;51.506;11.876;2023-10-09T15:00:50;15.00;84.70
14585;DHT22;7379;51.506;11.876;2023-10-09T15:03:17;15.00;84.60
14585;DHT22;7379;51.506;11.876;2023-10-09T15:05:45;15.00;84.70
14585;DHT22;7379;51.506;11.876;2023-10-09T15:08:14;15.10;84.90
14585;DHT22;7379;51.506;11.876;2023-10-09T15:10:47;15.10;84.80
14585;DHT22;7379;51.506;11.876;2023-10-09T15:13:14;15.10;84.70
14585;DHT22;7379;51.506;11.876;2023-10-09T15:15:42;15.10;84.90
14585;DHT22;7379;51.506;11.876;2023-10-09T15:18:09;15.10;84.80
14585;DHT22;7379;51.506;11.876;2023-10-09T15:20:39;15.10;84.60
14585;DHT22;7379;51.506;11.876;2023-10-09T15:23:06;15.10;84.80
14585;DHT22;7379;51.506;11.876;2023-10-09T15:25:35;15.10;84.60
14585;DHT22;7379;51.506;11.876;2023-10-09T15:28:05;15.10;84.60
14585;DHT22;7379;51.506;11.876;2023-10-09T15:30:33;15.10;84.60
14585;DHT22;7379;51.506;11.876;2023-10-09T15:32:59;15.10;84.80
14585;DHT22;7379;51.506;11.876;2023-10-09T15:35:27;15.10;85.10
14585;DHT22;7379;51.506;11.876;2023-10-09T15:37:55;15.10;85.20
14585;DHT22;7379;51.506;11.876;2023-10-09T15:40:21;15.10;85.30
14585;DHT22;7379;51.506;11.876;2023-10-09T15:42:51;15.10;85.30
14585;DHT22;7379;51.506;11.876;2023-10-09T15:45:22;15.10;85.20
14585;DHT22;7379;51.506;11.876;2023-10-09T15:47:50;15.10;85.30
14585;DHT22;7379;51.506;11.876;2023-10-09T15:50:17;15.10;85.20
14585;DHT22;7379;51.506;11.876;2023-10-09T15:52:44;15.10;85.30
14585;DHT22;7379;51.506;11.876;2023-10-09T15:55:13;15.10;86.10
14585;DHT22;7379;51.506;11.876;2023-10-09T15:57:40;15.10;85.50
14585;DHT22;7379;51.506;11.876;2023-10-09T16:00:10;15.10;85.40
14585;DHT22;7379;51.506;11.876;2023-10-09T16:02:43;15.10;85.50
14585;DHT22;7379;51.506;11.876;2023-10-09T16:05:10;15.20;85.70
14585;DHT22;7379;51.506;11.876;2023-10-09T16:07:37;15.20;86.10
14585;DHT22;7379;51.506;11.876;2023-10-09T16:10:06;15.20;86.50